Terminal Aerodrome Forecast
Issued by NWS

Home | Current Version | Previous Version | Text Only | Print | Product List | Glossary On
Versions: 1 2 3 4 5 6 7 8 9 10 11 12 13 14 15 16 17 18
000
FTUS45 KRIW 280034 AAB
TAFCPR
TAF AMD
KCPR 280034Z 2801/2824 31012G18KT P6SM SCT080
     FM280200 28008KT P6SM BKN090
     FM280600 24007KT P6SM SCT100
     FM281800 30011KT P6SM SCT060
     FM282200 34012G20KT P6SM VCTS SCT060CB BKN090=

USA.gov is the U.S. government's official web portal to all federal, state and local government web resources and services.